• Join FlightAware (Why Join?)
  • Login
  • US Flag 
07:15AM EST


 

Airport Tracker/Info


-or-


 

Live Flight TrackerFlight Track Log ✈ SWA407 ✈ 15-Apr-2013 ✈ KSFO - KSAN

Flight Track Log - Related Links

Times and Time Zones

All times are in EDT time to prevent confusion due to time zone crossing. See the SWA407 flight status page for this flight to view local times or setup timezone preferences in your user account.

Time Position Orientation Groundspeed Altitude Reporting Facility
EDT Latitude Longitude Course Direction KTS MPH feet Rate Location/Type
12:34AM 37.6444 -122.4347 298° West 167 192 4,000  Level Oakland Center
12:35AM 37.6700 -122.5003 296° West 197 227 8,700 3,780 Climbing Oakland Center
12:36AM 37.6186 -122.5531 219° Southwest 273 314 11,700 3,240 Climbing Oakland Center
12:37AM 37.5189 -122.5539 180° South 345 397 15,300 3,480 Climbing Oakland Center
12:38AM 37.4092 -122.5583 182° South 381 438 18,800 3,420 Climbing Oakland Center
12:39AM 37.2155 -122.5301 185° South  Level FlightAware Approximate
12:39AM 37.2936 -122.5633 182° South 404 465 22,300  Level Oakland Center
12:40AM 37.1728 -122.5672 181° South 419 482 25,700 3,120 Climbing Oakland Center
12:41AM 37.0514 -122.5697 181° South 430 495 28,700 2,640 Climbing Oakland Center
12:42AM 36.9275 -122.5425 170° South 461 531 31,100 2,160 Climbing Oakland Center
12:43AM 36.8175 -122.4314 141° Southeast 505 581 33,100 2,220 Climbing Oakland Center
12:44AM 36.7075 -122.3178 140° Southeast 515 593 35,700 2,280 Climbing Oakland Center
12:45AM 36.6008 -122.2075 140° Southeast 503 579 37,800 1,860 Climbing Oakland Center
12:46AM 36.4722 -122.0786 141° Southeast 498 573 39,600 1,440 Climbing Oakland Center
12:47AM 36.3644 -121.9717 141° Southeast 497 572 40,800 600 Climbing Oakland Center
12:48AM 36.2572 -121.8639 141° Southeast 497 572 40,900 60 Climbing Oakland Center
12:49AM 36.1633 -121.7653 140° Southeast 497 572 41,000  Climbing Oakland Center
12:50AM 36.0753 -121.6294 129° Southeast 506 582 41,000  Level Oakland Center
12:51AM 35.9872 -121.4956 129° Southeast 506 582 41,000  Level Oakland Center
12:52AM 35.8833 -121.3331 128° Southeast 503 579 41,000  Level Oakland Center
12:53AM 35.7969 -121.2003 129° Southeast 500 575 41,000  Level Oakland Center
12:55AM 35.7111 -121.0675 129° Southeast 497 572 41,000  Level Oakland Center
12:56AM 35.6253 -120.9347 128° Southeast 497 572 41,000  Level Oakland Center
12:57AM 35.5394 -120.8033 129° Southeast 497 572 41,000  Level Oakland Center
12:58AM 35.4544 -120.6733 129° Southeast 493 567 41,000  Level Oakland Center
12:59AM 35.3692 -120.5464 129° Southeast 490 564 41,000  Level Oakland Center
12:59AM 35.3392 -120.4992 128° Southeast 493 567 41,000  Level Los Angeles Center
01:00AM 35.2536 -120.3683 129° Southeast 491 565 41,000  Level Los Angeles Center
01:01AM 35.1669 -120.2367 129° Southeast 494 568 41,000  Level Los Angeles Center
01:02AM 35.0800 -120.1069 129° Southeast 492 566 41,000  Level Los Angeles Center
01:03AM 34.9972 -119.9831 129° Southeast 492 566 41,000  Level Los Angeles Center
01:04AM 34.8933 -119.8281 129° Southeast 492 566 41,000  Level Los Angeles Center
01:05AM 34.8058 -119.7003 130° Southeast 492 566 41,000  Level Los Angeles Center
01:06AM 34.7197 -119.5719 129° Southeast 492 566 41,000  Level Los Angeles Center
01:07AM 34.6328 -119.4431 129° Southeast 493 567 41,000  Level Los Angeles Center
01:08AM 34.5392 -119.3069 130° Southeast 492 566 41,000  Level Los Angeles Center
01:09AM 34.4522 -119.1817 130° Southeast 487 560 41,000  Level Los Angeles Center
01:11AM 34.2808 -118.9328 130° Southeast 483 556 41,000 -240 Level Los Angeles Center
01:12AM 34.1953 -118.8081 130° Southeast 482 555 40,400 -840 Descending Los Angeles Center
01:13AM 34.1100 -118.6867 130° Southeast 477 549 39,400 -1,380 Descending Los Angeles Center
01:14AM 34.0256 -118.5650 130° Southeast 473 544 37,600 -1,860 Descending Los Angeles Center
01:15AM 33.9397 -118.4422 130° Southeast 475 547 35,700 -1,920 Descending Los Angeles Center
01:16AM 33.8489 -118.3244 133° Southeast 474 545 33,700 -1,920 Descending Los Angeles Center
01:17AM 33.7578 -118.2125 134° Southeast 471 542 31,800 -2,100 Descending Los Angeles Center
01:18AM 33.6650 -118.0886 132° Southeast 470 541 29,500 -2,340 Descending Los Angeles Center
01:19AM 33.5781 -117.9783 133° Southeast 455 524 27,100 -2,460 Descending Los Angeles Center
01:20AM 33.4933 -117.8731 134° Southeast 440 506 24,500 -2,280 Descending Los Angeles Center
01:21AM 33.4114 -117.7689 133° Southeast 431 496 22,500 -2,220 Descending Los Angeles Center
01:22AM 33.3319 -117.6689 134° Southeast 417 480 20,100 -2,580 Descending Los Angeles Center
01:23AM 33.2394 -117.5547 134° Southeast 400 460 17,300 -2,460 Descending Los Angeles Center
01:24AM 33.1489 -117.4822 146° Southeast 390 449 15,100 -1,320 Descending Los Angeles Center
01:25AM 33.0694 -117.4156 145° Southeast 359 413 14,600 -2,160 Descending Los Angeles Center
01:26AM 32.9900 -117.3503 145° Southeast 345 397 10,800 -2,460 Descending Los Angeles Center
01:27AM 32.9111 -117.2878 146° Southeast 343 395 9,600 -1,440 Descending Los Angeles Center
01:28AM 32.8500 -117.2167 136° Southeast 304 350 7,900 -1,620 Descending Southern California TRACON
01:29AM 32.8000 -117.1500 132° Southeast 302 348 6,500 -1,440 Descending Southern California TRACON
01:30AM 32.7667 -117.0500 112° Southeast 278 320 5,100 -780 Descending Southern California TRACON
01:31AM 32.7667 -116.9833 90° East 239 275 5,000 -60 Descending Southern California TRACON
01:32AM 32.7500 -116.9167 107° East 218 251 5,000 -300 Level Southern California TRACON
01:33AM 32.6833 -116.9167 180° South 215 247 4,500 -600 Descending Southern California TRACON
01:34AM 32.6833 -116.9833 270° West 192 221 3,800 -960 Descending Southern California TRACON
01:35AM 32.7000 -117.0333 292° West 182 209 2,600 -1,080 Descending Southern California TRACON
01:36AM 32.7000 -117.0833 270° West 141 162 1,700 -780 Descending Southern California TRACON
01:37AM 32.7167 -117.1167 301° West 117 135 1,100 -600 Descending Southern California TRACON
01:38AM 32.7333 -117.1500 301° West 119 137 500 -600 Descending Southern California TRACON
01:39AM 32.7278 -117.1614 240° Southwest 119 137 400 -360 Descending Los Angeles Center
01:41AM 32.7333 -117.1833 253° West  Level FlightAware Approximate